Accueil
METAR-TAF:

METAR-TAF

Aéroports :

Aéroport international de Norwich

Norwich, Angleterre

latitude: 52-38N, longitude: 001-18E, altitude: 14 m

Observation

Le bulletin a été fait il y a 40 minutes, à 05:50 UTC
Vent 3 kt de ouest/sud-ouest
Température 17°C
Humidité 94%
Pression 1019 hPa
Visibilité 10 km ou plus
Ciel couvert à une hauteur de 1500 ft

METAR: EGSH 200550Z 24003KT 9999 OVC015 17/16 Q1019 TEMPO BKN014

Heure: 07:30 (06:30 UTC)

Prévision

Le bulletin a été fait il y a 37 minutes, à 05:53 UTC
Prévision valable du 20 à 06 UTC au 20 à 15 UTC
Vent 5 kt de ouest/sud-ouest
Visibilité 10 km ou plus
Nuages épars à une hauteur de 2500 ft
Probabilité 30% :
Temporairement
du 20 à 06 UTC au 20 à 09 UTC
Nuages fragmentés à une hauteur de 1000 ft

TAF: EGSH 200553Z 2006/2015 25005KT 9999 SCT025 PROB30 TEMPO 2006/2009 BKN010

Observations et prévisions météorologiques de plus de 4000 aéroports (messages METAR et TAF).

Les stations disponibles sont représentées par des disques jaunes et rouges sur la carte.

Passer la souris dessus pour voir le nom de la station.

Cliquer dessus pour voir les observations et prévisions météorologiques.

Pour changer de carte: cliquez sur les boutons verts avec une croix noire pour zoomer, sur le bouton vert avec un tiret pour effectuer un zoom arrière, ou sur les flèches vertes pour les cartes adjacentes.


METAR-TAF: